Tiempo atmosférico en la estación meteorológica de San Bartolome Tirajana, Las Tirajanas, Las Palmas (960 m.)



Fecha
DESCASC
Temp. máxima en grados centígrados (hora)
DESCASC
Temp. mínima en grados centígrados (hora)
DESCASC
Temp. media en grados centígrados
DESCASC
Racha de viento máxima en m/sg (hora)
DESCASC
Velocidad máxima media en intervalos de 10 minutos(hora)
DESCASC
Precipitaciones diarias en mm
DESCASC
Precipitaciones de 00:00 a 06:00 en mm
DESCASC
Precipitaciones de 06:00 a 12:00 en mm
DESCASC
Precipitaciones de 12:00 a 18:00 en mm
DESCASC
Precipitaciones de 18:00 a 24:00 en mm
DESCASC
17-10-2019 24.1 (14:50) 13.4 (23:59) 18.8 5 (16:30) 2.22 (13:20) 0 0 0 0 0
16-10-2019 19.2 (13:00) 12.7 (07:10) 16 3.89 (14:00) 1.67 (09:00) 0 0 0 0 0
15-10-2019 23.7 (13:20) 13 (08:10) 18.4 5.28 (12:40) 1.94 (06:40) 0 0 0 0 0
14-10-2019 24.6 (14:00) 13.1 (00:50) 18.9 6.39 (14:30) 2.78 (06:00) 0 0 0 0 0
13-10-2019 23.6 (13:00) 11.7 (00:00) 17.7 6.11 (15:00) 2.22 (15:20) 0 0 0 0 0
12-10-2019 24 (13:50) 12.1 (00:00) 18.1 6.39 (14:20) 2.22 (14:10) 0 0 0 0 0
11-10-2019 25.4 (15:20) 13.1 (00:00) 19.3 6.39 (13:40) 2.5 (05:20) 0 0 0 0 0
10-10-2019 25 (13:20) 14.5 (00:00) 19.8 6.67 (14:40) 2.22 (13:40) 0 0 0 0 0
09-10-2019 28.8 (12:10) 16.1 (00:00) 22.4 6.11 (13:40) 2.22 (12:50) 0 0 0 0 0
08-10-2019 31.5 (12:40) 20.4 (00:00) 25.9 6.94 (05:40) 3.33 (04:10) 0 0 0 0 0
07-10-2019 29.8 (15:40) 22.1 (00:00) 25.9 6.11 (23:00) 2.5 (23:20) 0 0 0 0 0
06-10-2019 29.1 (13:40) 20.1 (00:00) 24.6 6.11 (14:50) 2.22 (02:30) 0 0 0 0 0
05-10-2019 30.5 (13:20) 20.7 (00:00) 25.6 10.83 (05:50) 5.83 (12:00) 0 0 0 0 0
04-10-2019 31.1 (13:10) 25.1 (00:00) 28.1 22.5 (04:10) 13.06 (03:50) 0 0 0 0 0
03-10-2019 33.6 (13:00) 25.5 (00:00) 29.5 16.39 (15:10) 8.61 (23:59) 0 0 0 0 0
02-10-2019 36.8 (12:50) 26.9 (00:00) 31.8 10.56 (23:50) 6.11 (23:50) 0 0 0 0 0
01-10-2019 -- (--) -- (--) -- 6.11 (14:30) 2.78 (04:50) 0 0 0 0 0
30-09-2019 -- (--) -- (--) -- 5.28 (14:00) 2.22 (00:40) 0 0 0 0 0
29-09-2019 35 (14:10) 24.4 (00:00) 29.7 5 (15:50) 2.5 (07:00) 0 0 0 0 0
28-09-2019 30.4 (14:50) 24.3 (00:00) 27.3 6.39 (03:00) 3.89 (06:20) 0 0 0 0 0
27-09-2019 30.4 (13:50) 22 (00:00) 26.2 5.28 (13:00) 2.5 (06:20) 0 0 0 0 0
26-09-2019 30 (12:30) 19.8 (00:00) 24.9 4.72 (14:00) 2.5 (04:20) 0 0 0 0 0
25-09-2019 29.9 (14:00) 18.3 (00:00) 24.1 5 (15:50) 2.5 (01:20) 0 0 0 0 0
24-09-2019 28.2 (15:30) 18 (00:00) 23.1 6.11 (13:10) 2.5 (13:10) 0 0 0 0 0
23-09-2019 27 (13:50) 17.1 (00:00) 22.1 5.83 (14:40) 1.94 (11:50) 0 0 0 0 0
22-09-2019 27.8 (13:40) 15.3 (00:00) 21.5 5.83 (14:30) 2.22 (14:30) 0 0 0 0 0
21-09-2019 27 (13:40) 16.6 (00:00) 21.8 6.11 (14:10) 2.22 (13:10) 0 0 0 0 0
20-09-2019 27.3 (15:30) 17 (00:00) 22.1 5.28 (14:30) 2.22 (15:50) 0 0 0 0 0

Gráficas

Temp. máximas Temp. mínimas Temp. medias Precipitaciones Rachas de viento máximas Velocidades máximas media en intervalos de 10 minutos

Datos horarios

Fecha y hora oficial Temperatura (ºC) Velocidad del viento (km/h) Dirección del viento Racha (km/h) Dirección de racha Precipitación (mm) Presión (hPa) Tendencia (hPa) Humedad (%)
2019-10-19 23:00:00 16.8 3 Este 3 Este 0 -- -- 82
2019-10-19 22:00:00 17.4 0 Calma 7 Oeste 0 -- -- 79
2019-10-19 21:00:00 16.6 5 Oeste 7 Noroeste 0 -- -- 83
2019-10-19 20:00:00 17.8 2 Nordeste 4 Este 0 -- -- 79
2019-10-19 19:00:00 20 2 Este 6 Este 0 -- -- 70
2019-10-19 18:00:00 22.5 3 Este 11 Este 0 -- -- 60
2019-10-19 17:00:00 23.6 4 Este 15 Sudeste 0 -- -- 57
2019-10-19 16:00:00 25.2 6 Este 21 Sudeste 0 -- -- 51
2019-10-19 15:00:00 24.9 5 Sudeste 20 Este 0 -- -- 52
2019-10-19 14:00:00 25.2 5 Este 16 Este 0 -- -- 49
2019-10-19 13:00:00 24.5 5 Este 15 Este 0 -- -- 47
2019-10-19 12:00:00 22.6 5 Este 14 Este 0 -- -- 51
2019-10-19 11:00:00 21.2 4 Este 12 Este 0 -- -- 53
2019-10-19 10:00:00 19.8 4 Este 10 Este 0 -- -- 54
2019-10-19 09:00:00 15.9 3 Nordeste 9 Este 0 -- -- 57
2019-10-19 08:00:00 16 0 Calma 3 Sudoeste 0 -- -- 44
2019-10-19 07:00:00 16.9 2 Norte 6 Oeste 0 -- -- 35
2019-10-19 06:00:00 15.8 2 Noroeste 6 Oeste 0 -- -- 41
2019-10-19 05:00:00 14 4 Oeste 8 Este 0 -- -- 72
2019-10-19 04:00:00 15.1 0 Calma 6 Este 0 -- -- 69
2019-10-19 03:00:00 15 3 Sudoeste 8 Noroeste 0 -- -- 65
2019-10-19 02:00:00 15.1 3 Norte 6 Noroeste 0 -- -- 53
2019-10-19 01:00:00 16.5 2 Este 6 Noroeste 0 -- -- 52
2019-10-19 00:00:00 16.1 2 Noroeste 6 Oeste 0 -- -- 50
2019-10-18 23:00:00 16.2 3 Sur 6 Oeste 0 -- -- 61
2019-10-18 22:00:00 15.7 2 Sur 8 Oeste 0 -- -- 86
2019-10-18 21:00:00 15.8 0 Calma 7 Este 0 -- -- 86
2019-10-18 20:00:00 17 2 Nordeste 6 Este 0 -- -- 81
2019-10-18 19:00:00 19 3 Este 7 Este 0 -- -- 72
2019-10-18 18:00:00 21.1 3 Este 10 Este 0 -- -- 65
2019-10-18 17:00:00 22.7 4 Este 13 Sudeste 0 -- -- 59
2019-10-18 16:00:00 23.3 5 Este 18 Este 0 -- -- 56
2019-10-18 15:00:00 23.9 5 Sudeste 16 Sudeste 0 -- -- 53
2019-10-18 14:00:00 23.8 5 Sudeste 21 Sudeste 0 -- -- 53
2019-10-18 13:00:00 22.9 4 Este 17 Este 0 -- -- 53
2019-10-18 12:00:00 20.6 5 Este 14 Nordeste 0 -- -- 59
2019-10-18 11:00:00 18.6 5 Este 14 Este 0 -- -- 67
2019-10-18 10:00:00 16.1 4 Este 8 Este 0 -- -- 78
2019-10-18 09:00:00 13.3 2 Sudoeste 6 Sudoeste 0 -- -- 86
2019-10-18 08:00:00 12.2 4 Sur 9 Noroeste 0 -- -- 94
2019-10-18 07:00:00 11.9 0 Calma 5 Oeste 0 -- -- 90
2019-10-18 06:00:00 11.9 3 Noroeste 5 Noroeste 0 -- -- 90
2019-10-18 05:00:00 12 2 Sudoeste 8 Noroeste 0 -- -- 92
2019-10-18 04:00:00 12.4 3 Sudoeste 5 Sudoeste 0 -- -- 92
2019-10-18 03:00:00 12.7 2 Sudeste 8 Oeste 0 -- -- 93
2019-10-18 02:00:00 12.7 0 Calma 4 Oeste 0 -- -- 91
2019-10-18 01:00:00 13.2 0 Calma 7 Noroeste 0 -- -- 89
2019-10-18 00:00:00 13.4 4 Oeste 6 Sur 0 -- -- 90
2019-10-17 23:00:00 14.1 3 Oeste 4 Oeste 0 -- -- 86
2019-10-17 22:00:00 14.7 4 Sudoeste 6 Sudoeste 0 -- -- 85
2019-10-17 21:00:00 15.4 3 Sudeste 6 Sur 0 -- -- 82
2019-10-17 20:00:00 16.2 3 Sudeste 8 Este 0 -- -- 73
2019-10-17 19:00:00 17.9 3 Este 8 Este 0 -- -- 68
2019-10-17 18:00:00 19.7 3 Sudeste 14 Sur 0 -- -- 68
2019-10-17 17:00:00 20.4 5 Sudeste 18 Sudeste 0 -- -- 68
2019-10-17 16:00:00 23.1 5 Sudeste 15 Sudeste 0 -- -- 58
2019-10-17 15:00:00 24 4 Este 17 Sur 0 -- -- 53
2019-10-17 14:00:00 23.6 6 Este 17 Este 0 -- -- 55
2019-10-17 13:00:00 23.4 5 Este 18 Este 0 -- -- 55
2019-10-17 12:00:00 21.7 5 Este 16 Este 0 -- -- 63
2019-10-17 11:00:00 20 6 Nordeste 14 Este 0 -- -- 69
2019-10-17 10:00:00 18.3 4 Este 11 Este 0 -- -- 76
2019-10-17 09:00:00 14.9 2 Nordeste 6 Este 0 -- -- 89
2019-10-17 08:00:00 14.2 0 Calma 4 Noroeste 0 -- -- 91
2019-10-17 07:00:00 14.1 0 Calma 5 Noroeste 0 -- -- 92
2019-10-17 06:00:00 13.9 0 Calma 5 Noroeste 0 -- -- 94
2019-10-17 05:00:00 13.6 0 Calma 4 Oeste 0 -- -- 94
2019-10-17 04:00:00 13.8 3 Nordeste 7 Noroeste 0 -- -- 92
2019-10-17 03:00:00 14.2 2 Norte 6 Sudeste 0 -- -- 89
2019-10-17 02:00:00 14.6 4 Este 9 Oeste 0 -- -- 87
2019-10-17 01:00:00 14.2 4 Oeste 7 Noroeste 0 -- -- 89
2019-10-17 00:00:00 14.6 3 Norte 6 Sudeste 0 -- -- 88
2019-10-16 23:00:00 15 2 Sur 8 Este 0 -- -- 85
2019-10-16 22:00:00 15.2 0 Calma 7 Nordeste 0 -- -- 84
2019-10-16 21:00:00 15.3 0 Calma 5 Sudeste 0 -- -- 84
2019-10-16 20:00:00 15.8 0 Calma 7 Este 0 -- -- 82
2019-10-16 19:00:00 16.9 2 Este 9 Este 0 -- -- 79
2019-10-16 18:00:00 18 4 Este 13 Nordeste 0 -- -- 77
2019-10-16 17:00:00 18.5 4 Este 13 Este 0 -- -- 77
2019-10-16 16:00:00 17.2 3 Sudeste 11 Nordeste 0 -- -- 84
2019-10-16 15:00:00 18 3 Este 12 Nordeste 0 -- -- 81
2019-10-16 14:00:00 18.2 5 Este 14 Este 0 -- -- 79
2019-10-16 13:00:00 19.2 5 Este 13 Este 0 -- -- 72
2019-10-16 12:00:00 18.3 5 Este 10 Este 0 -- -- 73
2019-10-16 11:00:00 17.1 5 Este 10 Este 0 -- -- 77
2019-10-16 10:00:00 15.5 0 Calma 7 Noroeste 0 -- -- 84
2019-10-16 09:00:00 14 6 Noroeste 10 Oeste 0 -- -- 89
2019-10-16 08:00:00 12.7 4 Noroeste 7 Sudeste 0 -- -- 91
2019-10-16 07:00:00 12.9 2 Oeste 6 Sudeste 0 -- -- 92
2019-10-16 06:00:00 13.2 4 Sudeste 7 Noroeste 0 -- -- 94
2019-10-16 05:00:00 13.1 0 Calma 4 Este 0 -- -- 93
2019-10-16 04:00:00 12.9 4 Oeste 6 Oeste 0 -- -- 91
2019-10-16 03:00:00 13.6 0 Calma 3 Oeste 0 -- -- 88
2019-10-16 02:00:00 13.9 2 Este 7 Noroeste 0 -- -- 86
2019-10-16 01:00:00 14.3 2 Oeste 4 Este 0 -- -- 81
2019-10-16 00:00:00 15 3 Este 9 Sudeste 0 -- -- 80
2019-10-15 23:00:00 14.7 2 Sudoeste 11 Oeste 0 -- -- 82
2019-10-15 22:00:00 15 3 Este 6 Sudeste 0 -- -- 81
2019-10-15 21:00:00 15.6 2 Este 6 Sudeste 0 -- -- 80
2019-10-15 20:00:00 16.5 3 Sudeste 7 Sur 0 -- -- 76
2019-10-15 19:00:00 18.1 5 Este 10 Este 0 -- -- 70
2019-10-15 18:00:00 20.7 5 Este 17 Este 0 -- -- 64
2019-10-15 17:00:00 21.9 5 Sudeste 17 Este 0 -- -- 64
2019-10-15 16:00:00 21.9 5 Este 15 Nordeste 0 -- -- 64
2019-10-15 15:00:00 21.3 6 Este 15 Este 0 -- -- 66
2019-10-15 14:00:00 22.4 6 Este 19 Sudeste 0 -- -- 61
2019-10-15 13:00:00 22.9 5 Este 19 Sudeste 0 -- -- 57
2019-10-15 12:00:00 22.1 5 Sudeste 15 Este 0 -- -- 58
2019-10-15 11:00:00 20.1 4 Este 13 Este 0 -- -- 65
2019-10-15 10:00:00 17.6 4 Este 13 Este 0 -- -- 75
2019-10-15 09:00:00 13.9 3 Sur 8 Oeste 0 -- -- 89
2019-10-15 08:00:00 13.2 3 Noroeste 8 Noroeste 0 -- -- 86
2019-10-15 07:00:00 14.1 3 Sudeste 11 Noroeste 0 -- -- 86
2019-10-15 06:00:00 13.6 2 Oeste 5 Oeste 0 -- -- 86
2019-10-15 05:00:00 14.3 2 Sudeste 6 Oeste 0 -- -- 84
2019-10-15 04:00:00 14.2 3 Sudoeste 6 Oeste 0 -- -- 82
2019-10-15 03:00:00 14.6 2 Nordeste 6 Oeste 0 -- -- 79
2019-10-15 02:00:00 15.2 3 Sur 6 Sudoeste 0 -- -- 81
2019-10-15 01:00:00 15.5 2 Noroeste 8 Sudoeste 0 -- -- 78
2019-10-15 00:00:00 15.2 4 Oeste 9 Sudoeste 0 -- -- 79
2019-10-14 23:00:00 15.4 2 Oeste 6 Sudoeste 0 -- -- 86
2019-10-14 22:00:00 16.3 2 Sur 6 Noroeste 0 -- -- 85
2019-10-14 21:00:00 16.5 2 Sudoeste 6 Sudoeste 0 -- -- 85
2019-10-14 20:00:00 17.5 3 Sudoeste 12 Sudeste 0 -- -- 82
2019-10-14 19:00:00 19.3 3 Sudeste 10 Sudeste 0 -- -- 69
2019-10-14 18:00:00 21.7 3 Sudeste 14 Sudeste 0 -- -- 62
2019-10-14 17:00:00 22.6 5 Sudeste 17 Este 0 -- -- 58
2019-10-14 16:00:00 23.1 6 Sudeste 19 Sudeste 0 -- -- 56
2019-10-14 15:00:00 23.6 6 Sudeste 23 Sudeste 0 -- -- 54
2019-10-14 14:00:00 24.6 5 Sudeste 17 Este 0 -- -- 49
2019-10-14 13:00:00 22.4 5 Sur 16 Sur 0 -- -- 53
2019-10-14 12:00:00 22 5 Este 15 Este 0 -- -- 51
2019-10-14 11:00:00 20.6 3 Este 12 Este 0 -- -- 50
2019-10-14 10:00:00 19.7 5 Este 10 Nordeste 0 -- -- 46
2019-10-14 09:00:00 15 4 Noroeste 11 Noroeste 0 -- -- 56
2019-10-14 08:00:00 15.2 5 Oeste 9 Oeste 0 -- -- 43
2019-10-14 07:00:00 15.1 3 Sudoeste 8 Oeste 0 -- -- 45
2019-10-14 06:00:00 13.8 10 Oeste 16 Oeste 0 -- -- 53
2019-10-14 05:00:00 13.2 9 Noroeste 13 Oeste 0 -- -- 69
2019-10-14 04:00:00 13.8 4 Sur 7 Sudoeste 0 -- -- 71
2019-10-14 03:00:00 13.8 6 Sudoeste 10 Noroeste 0 -- -- 73
2019-10-14 02:00:00 14.2 4 Sudeste 9 Sudeste 0 -- -- 82
2019-10-14 01:00:00 13.2 9 Oeste 13 Oeste 0 -- -- 89
2019-10-14 00:00:00 13.8 2 Oeste 9 Noroeste 0 -- -- 90
2019-10-13 23:00:00 14.5 2 Oeste 6 Sur 0 -- -- 91
2019-10-13 22:00:00 15.2 2 Este 7 Este 0 -- -- 89
2019-10-13 21:00:00 15.7 2 Este 8 Sudeste 0 -- -- 86
2019-10-13 20:00:00 16.2 3 Este 8 Nordeste 0 -- -- 83
2019-10-13 19:00:00 17.1 3 Sudeste 10 Este 0 -- -- 78
2019-10-13 18:00:00 18.2 3 Sudeste 11 Este 0 -- -- 72
2019-10-13 17:00:00 19 4 Sudeste 16 Sudeste 0 -- -- 68
2019-10-13 16:00:00 20.7 5 Este 21 Este 0 -- -- 62
2019-10-13 15:00:00 23.5 6 Este 22 Este 0 -- -- 54
2019-10-13 14:00:00 23.2 5 Sudeste 20 Sudeste 0 -- -- 55
2019-10-13 13:00:00 23.6 5 Este 18 Este 0 -- -- 54
2019-10-13 12:00:00 21.6 4 Este 19 Este 0 -- -- 57
2019-10-13 11:00:00 19.5 5 Este 14 Este 0 -- -- 63
2019-10-13 10:00:00 17.2 4 Este 10 Nordeste 0 -- -- 70
2019-10-13 09:00:00 13.3 0 Calma 8 Noroeste 0 -- -- 89
2019-10-13 08:00:00 11.8 3 Noroeste 9 Noroeste 0 -- -- 90
2019-10-13 07:00:00 11.8 3 Noroeste 9 Noroeste 0 -- -- 89
2019-10-13 06:00:00 12 3 Oeste 10 Noroeste 0 -- -- 91
2019-10-13 05:00:00 12.9 7 Noroeste 11 Noroeste 0 -- -- 87
2019-10-13 04:00:00 13.2 3 Sudoeste 9 Oeste 0 -- -- 90
2019-10-13 03:00:00 13.4 4 Oeste 10 Oeste 0 -- -- 89
2019-10-13 02:00:00 13.9 2 Noroeste 7 Oeste 0 -- -- 91
2019-10-13 01:00:00 14 3 Oeste 7 Noroeste 0 -- -- 89
2019-10-13 00:00:00 14.5 3 Sudoeste 5 Sudoeste 0 -- -- 93
2019-10-12 23:00:00 15.5 3 Nordeste 6 Sur 0 -- -- 87
2019-10-12 22:00:00 15.7 3 Sudoeste 8 Sur 0 -- -- 90
2019-10-12 21:00:00 16.4 3 Este 6 Este 0 -- -- 86
2019-10-12 20:00:00 17 2 Este 7 Este 0 -- -- 84
2019-10-12 19:00:00 17.5 4 Este 11 Este 0 -- -- 82
2019-10-12 18:00:00 18.8 3 Sudeste 13 Este 0 -- -- 77
2019-10-12 17:00:00 19.9 4 Este 16 Este 0 -- -- 72
2019-10-12 16:00:00 22.5 4 Sudeste 16 Este 0 -- -- 62
2019-10-12 15:00:00 23.7 6 Este 23 Este 0 -- -- 57
2019-10-12 14:00:00 23.9 6 Este 19 Sudeste 0 -- -- 54
2019-10-12 13:00:00 23.1 5 Este 18 Sudeste 0 -- -- 57
2019-10-12 12:00:00 21.6 6 Nordeste 17 Este 0 -- -- 57
2019-10-12 11:00:00 20 7 Este 16 Sudeste 0 -- -- 62
2019-10-12 10:00:00 17.3 3 Nordeste 9 Este 0 -- -- 70
2019-10-12 09:00:00 13.5 2 Noroeste 4 Noroeste 0 -- -- 88
2019-10-12 08:00:00 12.3 2 Noroeste 7 Oeste 0 -- -- 89
2019-10-12 07:00:00 12.3 3 Oeste 4 Noroeste 0 -- -- 83
2019-10-12 06:00:00 12.7 3 Noroeste 9 Noroeste 0 -- -- 86
2019-10-12 05:00:00 12.7 4 Oeste 11 Noroeste 0 -- -- 89
2019-10-12 04:00:00 14 4 Noroeste 7 Noroeste 0 -- -- 87
2019-10-12 03:00:00 14.5 0 Calma 6 Oeste 0 -- -- 88
2019-10-12 02:00:00 14.8 0 Calma 4 Sudeste 0 -- -- 89
2019-10-12 01:00:00 15.4 3 Sudeste 8 Sudeste 0 -- -- 88
2019-10-12 00:00:00 15.7 2 Este 7 Este 0 -- -- 88
2019-10-11 23:00:00 16.3 3 Este 8 Este 0 -- -- 85
2019-10-11 22:00:00 16.5 3 Este 6 Sudeste 0 -- -- 88
2019-10-11 21:00:00 16.8 2 Este 8 Este 0 -- -- 87
2019-10-11 20:00:00 17.3 4 Sudeste 7 Sur 0 -- -- 85
2019-10-11 19:00:00 18.5 3 Nordeste 11 Oeste 0 -- -- 78
2019-10-11 18:00:00 19.1 5 Sur 17 Sur 0 -- -- 76
2019-10-11 17:00:00 23 5 Sudoeste 15 Sudeste 0 -- -- 59
2019-10-11 16:00:00 24.3 3 Noroeste 18 Este 0 -- -- 55
2019-10-11 15:00:00 23.9 8 Sudeste 23 Este 0 -- -- 55
2019-10-11 14:00:00 23.6 7 Sudeste 23 Este 0 -- -- 55
2019-10-11 13:00:00 24.4 5 Este 18 Este 0 -- -- 50
2019-10-11 12:00:00 22.9 6 Este 17 Este 0 -- -- 52
2019-10-11 11:00:00 21.6 4 Este 13 Este 0 -- -- 52
2019-10-11 10:00:00 19.7 4 Este 11 Este 0 -- -- 50
2019-10-11 09:00:00 15.4 2 Oeste 7 Noroeste 0 -- -- 61
2019-10-11 08:00:00 13.9 2 Sudoeste 7 Sudeste 0 -- -- 46
2019-10-11 07:00:00 14.4 0 Calma 6 Noroeste 0 -- -- 54
2019-10-11 06:00:00 14.5 4 Noroeste 11 Noroeste 0 -- -- 45
2019-10-11 05:00:00 13.2 7 Oeste 11 Oeste 0 -- -- 81
2019-10-11 04:00:00 13.4 6 Noroeste 8 Oeste 0 -- -- 90
2019-10-11 03:00:00 13.9 3 Sudoeste 9 Noroeste 0 -- -- 91
2019-10-11 02:00:00 14.4 2 Sur 6 Oeste 0 -- -- 89
2019-10-11 01:00:00 15.1 4 Sudoeste 8 Noroeste 0 -- -- 86
2019-10-11 00:00:00 15.6 3 Oeste 7 Sudeste 0 -- -- 91
2019-10-10 23:00:00 15.8 3 Oeste 6 Este 0 -- -- 91
2019-10-10 22:00:00 16.2 4 Este 7 Sudeste 0 -- -- 90
2019-10-10 21:00:00 16.7 3 Este 5 Este 0 -- -- 90
2019-10-10 20:00:00 17.4 2 Este 8 Este 0 -- -- 86
2019-10-10 19:00:00 18.7 2 Este 12 Este 0 -- -- 79
2019-10-10 18:00:00 19.4 4 Sur 18 Sur 0 -- -- 78
2019-10-10 17:00:00 21.8 8 Sudeste 17 Este 0 -- -- 67
2019-10-10 16:00:00 23 6 Este 17 Sudeste 0 -- -- 60
2019-10-10 15:00:00 22.9 8 Sur 24 Sudeste 0 -- -- 58
2019-10-10 14:00:00 24.3 7 Este 20 Este 0 -- -- 52
2019-10-10 13:00:00 24.3 5 Este 20 Este 0 -- -- 52
2019-10-10 12:00:00 23.9 4 Este 16 Nordeste 0 -- -- 46
2019-10-10 11:00:00 23.2 5 Este 14 Este 0 -- -- 44
2019-10-10 10:00:00 20.5 4 Este 11 Este 0 -- -- 49
2019-10-10 09:00:00 16.1 0 Calma 6 Noroeste 0 -- -- 70
2019-10-10 08:00:00 14.7 3 Sur 6 Oeste 0 -- -- 72
2019-10-10 07:00:00 16.1 5 Sudeste 8 Sudeste 0 -- -- 70
2019-10-10 06:00:00 16.7 4 Noroeste 9 Este 0 -- -- 36
2019-10-10 05:00:00 18.3 5 Sur 10 Este 0 -- -- 35
2019-10-10 04:00:00 18.1 4 Sudeste 10 Noroeste 0 -- -- 49
2019-10-10 03:00:00 17 6 Noroeste 8 Noroeste 0 -- -- 50
2019-10-10 02:00:00 17.3 4 Oeste 7 Oeste 0 -- -- 50
2019-10-10 01:00:00 17.7 0 Calma 9 Noroeste 0 -- -- 69
2019-10-10 00:00:00 17.4 6 Noroeste 9 Noroeste 0 -- -- 70
2019-10-09 23:00:00 16.5 3 Este 6 Noroeste 0 -- -- 78
2019-10-09 22:00:00 18.3 2 Sur 8 Sudoeste 0 -- -- 72
2019-10-09 21:00:00 17.7 2 Este 8 Sudeste 0 -- -- 83
2019-10-09 20:00:00 19.5 0 Calma 6 Este 0 -- -- 73
2019-10-09 19:00:00 21.3 4 Este 9 Este 0 -- -- 65
2019-10-09 18:00:00 23.8 5 Este 13 Este 0 -- -- 58
2019-10-09 17:00:00 24.8 4 Este 13 Sudeste 0 -- -- 55
2019-10-09 16:00:00 25.7 5 Sudeste 19 Este 0 -- -- 52
2019-10-09 15:00:00 26.6 5 Este 21 Sudeste 0 -- -- 50
2019-10-09 14:00:00 26.6 7 Sudeste 22 Este 0 -- -- 50
2019-10-09 13:00:00 27.5 5 Este 18 Sudeste 0 -- -- 44
2019-10-09 12:00:00 28.6 6 Este 14 Sudeste 0 -- -- 30
2019-10-09 11:00:00 27.2 6 Este 13 Este 0 -- -- 33
2019-10-09 10:00:00 25.8 4 Este 12 Nordeste 0 -- -- 27
2019-10-09 09:00:00 21.1 3 Oeste 6 Sudoeste 0 -- -- 33
2019-10-09 08:00:00 19.8 6 Oeste 10 Noroeste 0 -- -- 37
2019-10-09 07:00:00 19.9 3 Sudoeste 7 Sudoeste 0 -- -- 37
2019-10-09 06:00:00 19.7 3 Oeste 6 Oeste 0 -- -- 38
2019-10-09 05:00:00 20.3 2 Sudeste 9 Noroeste 0 -- -- 36
2019-10-09 04:00:00 19.7 4 Oeste 7 Oeste 0 -- -- 40
2019-10-09 03:00:00 19.8 6 Oeste 8 Oeste 0 -- -- 41
2019-10-09 02:00:00 19.8 2 Sur 6 Noroeste 0 -- -- 50
2019-10-09 01:00:00 20 3 Sudeste 4 Sudeste 0 -- -- 65
2019-10-09 00:00:00 20.4 0 Calma 4 Sudeste 0 -- -- 65
2019-10-08 23:00:00 20.8 4 Oeste 7 Noroeste 0 -- -- 65
2019-10-08 22:00:00 21.2 3 Oeste 8 Noroeste 0 -- -- 65
2019-10-08 21:00:00 21.6 0 Calma 8 Oeste 0 -- -- 67
2019-10-08 20:00:00 21.1 4 Oeste 6 Oeste 0 -- -- 72
2019-10-08 19:00:00 21.7 3 Nordeste 9 Sudeste 0 -- -- 70
2019-10-08 18:00:00 25 5 Este 12 Este 0 -- -- 58
2019-10-08 17:00:00 27.9 5 Este 14 Sudeste 0 -- -- 51
2019-10-08 16:00:00 28.5 4 Sudeste 14 Este 0 -- -- 45
2019-10-08 15:00:00 28.1 6 Este 19 Este 0 -- -- 47
2019-10-08 14:00:00 30.4 4 Este 18 Este 0 -- -- 42
2019-10-08 13:00:00 31.1 7 Este 19 Este 0 -- -- 37
2019-10-08 12:00:00 31 6 Este 16 Este 0 -- -- 21
2019-10-08 11:00:00 30.3 5 Este 14 Nordeste 0 -- -- 17
2019-10-08 10:00:00 28.1 5 Nordeste 17 Oeste 0 -- -- 19
2019-10-08 09:00:00 23.7 3 Oeste 10 Sudeste 0 -- -- 22
2019-10-08 08:00:00 23.8 3 Este 21 Oeste 0 -- -- 21
2019-10-08 07:00:00 22.6 6 Noroeste 17 Oeste 0 -- -- 22
2019-10-08 06:00:00 25 5 Noroeste 25 Oeste 0 -- -- 21
2019-10-08 05:00:00 25.9 11 Oeste 24 Oeste 0 -- -- 18
2019-10-08 04:00:00 25.9 11 Oeste 19 Oeste 0 -- -- 19
2019-10-08 03:00:00 26 11 Oeste 22 Oeste 0 -- -- 19
2019-10-08 02:00:00 25.5 7 Oeste 22 Oeste 0 -- -- 20
2019-10-08 01:00:00 25 7 Oeste 15 Oeste 0 -- -- 20
2019-10-08 00:00:00 25 7 Oeste 17 Oeste 0 -- -- 20
2019-10-07 23:00:00 26 9 Oeste 22 Oeste 0 -- -- 19
2019-10-07 22:00:00 25.5 6 Oeste 14 Noroeste 0 -- -- 19
2019-10-07 21:00:00 25.5 5 Noroeste 10 Oeste 0 -- -- 19
2019-10-07 20:00:00 24.8 3 Oeste 9 Oeste 0 -- -- 42
2019-10-07 19:00:00 26 0 Calma 7 Sudeste 0 -- -- 37
2019-10-07 18:00:00 27.8 4 Este 10 Nordeste 0 -- -- 41
2019-10-07 17:00:00 28.9 6 Este 15 Este 0 -- -- 38
2019-10-07 16:00:00 29.8 6 Este 18 Este 0 -- -- 39
2019-10-07 15:00:00 29.2 5 Este 21 Este 0 -- -- 42
2019-10-07 14:00:00 28.9 7 Este 18 Este 0 -- -- 41
2019-10-07 13:00:00 29.1 6 Este 15 Este 0 -- -- 31
2019-10-07 12:00:00 28.9 6 Este 13 Este 0 -- -- 33
2019-10-07 11:00:00 27.5 4 Este 15 Este 0 -- -- 30
2019-10-07 10:00:00 26.9 3 Este 6 Nordeste 0 -- -- 18
2019-10-07 09:00:00 23.5 3 Este 8 Noroeste 0 -- -- 20
2019-10-07 08:00:00 22.8 0 Calma 7 Oeste 0 -- -- 19
2019-10-07 07:00:00 22.4 4 Oeste 6 Sudoeste 0 -- -- 18
2019-10-07 06:00:00 22.5 0 Calma 6 Oeste 0 -- -- 18
2019-10-07 05:00:00 22.1 3 Oeste 7 Oeste 0 -- -- 18
2019-10-07 04:00:00 22.7 4 Sudoeste 8 Sudoeste 0 -- -- 18
2019-10-07 03:00:00 22.9 2 Sudeste 5 Oeste 0 -- -- 19
2019-10-07 02:00:00 23.2 2 Oeste 11 Noroeste 0 -- -- 20
2019-10-07 01:00:00 23.9 5 Oeste 10 Oeste 0 -- -- 19
2019-10-07 00:00:00 22.8 6 Noroeste 11 Noroeste 0 -- -- 23
2019-10-06 23:00:00 22.1 8 Noroeste 11 Noroeste 0 -- -- 34
2019-10-06 22:00:00 21.1 6 Oeste 9 Noroeste 0 -- -- 62
2019-10-06 21:00:00 21.3 4 Oeste 7 Noroeste 0 -- -- 66
2019-10-06 20:00:00 21.5 2 Nordeste 5 Sudoeste 0 -- -- 65
2019-10-06 19:00:00 23.1 2 Este 7 Sudeste 0 -- -- 61
2019-10-06 18:00:00 25.8 4 Este 12 Este 0 -- -- 51
2019-10-06 17:00:00 27 5 Este 17 Sudeste 0 -- -- 51
2019-10-06 16:00:00 27.9 6 Este 18 Este 0 -- -- 46
2019-10-06 15:00:00 28.3 6 Este 22 Este 0 -- -- 46
2019-10-06 14:00:00 28.5 5 Este 20 Este 0 -- -- 41
2019-10-06 13:00:00 28.7 6 Este 17 Este 0 -- -- 39
2019-10-06 12:00:00 28.3 7 Este 16 Nordeste 0 -- -- 38
2019-10-06 11:00:00 27 5 Este 10 Este 0 -- -- 34
2019-10-06 10:00:00 24.3 4 Nordeste 12 Sur 0 -- -- 34
2019-10-06 09:00:00 22 5 Sur 16 Sur 0 -- -- 31
2019-10-06 08:00:00 20.5 4 Sudoeste 9 Sudoeste 0 -- -- 28
2019-10-06 07:00:00 21.7 6 Sudoeste 15 Sur 0 -- -- 27
2019-10-06 06:00:00 21.2 5 Sudoeste 15 Sudoeste 0 -- -- 26
2019-10-06 05:00:00 21 3 Sur 9 Sudoeste 0 -- -- 25
2019-10-06 04:00:00 22.4 7 Sur 19 Sudeste 0 -- -- 23
2019-10-06 03:00:00 22.8 6 Sudeste 14 Este 0 -- -- 21
2019-10-06 02:00:00 22.7 6 Sudoeste 18 Este 0 -- -- 21
2019-10-06 01:00:00 21.5 5 Oeste 13 Sudoeste 0 -- -- 23
2019-10-06 00:00:00 22.7 5 Sudeste 12 Sudoeste 0 -- -- 24
2019-10-05 23:00:00 20.8 6 Sudoeste 9 Sudoeste 0 -- -- 34
2019-10-05 22:00:00 21.1 4 Oeste 8 Sudoeste 0 -- -- 39
2019-10-05 21:00:00 21.6 2 Sur 5 Noroeste 0 -- -- 42
2019-10-05 20:00:00 22.7 0 Calma 8 Sudeste 0 -- -- 48
2019-10-05 19:00:00 24.5 4 Sudoeste 17 Sur 0 -- -- 48
2019-10-05 18:00:00 27.4 7 Sur 17 Sur 0 -- -- 36
2019-10-05 17:00:00 28.8 6 Sudeste 25 Este 0 -- -- 32
2019-10-05 16:00:00 29.7 9 Este 34 Nordeste 0 -- -- 28
2019-10-05 15:00:00 29.1 15 Nordeste 39 Nordeste 0 -- -- 21
2019-10-05 14:00:00 29.7 12 Nordeste 36 Nordeste 0 -- -- 21
2019-10-05 13:00:00 30 12 Nordeste 38 Nordeste 0 -- -- 19
2019-10-05 12:00:00 29.1 21 Nordeste 37 Nordeste 0 -- -- 20
2019-10-05 11:00:00 29.2 9 Este 27 Este 0 -- -- 21
2019-10-05 10:00:00 27.2 6 Sudeste 23 Este 0 -- -- 23
2019-10-05 09:00:00 24.6 7 Sudeste 17 Sudeste 0 -- -- 24
2019-10-05 08:00:00 22.9 4 Este 18 Sur 0 -- -- 25
2019-10-05 07:00:00 23.5 4 Sudoeste 22 Sudeste 0 -- -- 23
2019-10-05 06:00:00 24.1 10 Norte 39 Sudeste 0 -- -- 22
2019-10-05 05:00:00 23.9 9 Sudoeste 23 Sur 0 -- -- 22
2019-10-05 04:00:00 24.1 6 Sur 39 Norte 0 -- -- 22
2019-10-05 03:00:00 23.9 5 Noroeste 20 Sudoeste 0 -- -- 22
2019-10-05 02:00:00 23.7 5 Oeste 18 Sudoeste 0 -- -- 22
2019-10-05 01:00:00 24.1 3 Oeste 18 Oeste 0 -- -- 22
2019-10-05 00:00:00 25.1 6 Sudeste 42 Norte 0 -- -- 22
2019-10-04 23:00:00 25.7 19 Nordeste 47 Nordeste 0 -- -- 21
2019-10-04 22:00:00 26.1 26 Nordeste 50 Nordeste 0 -- -- 20
2019-10-04 21:00:00 26.3 23 Nordeste 42 Nordeste 0 -- -- 20
2019-10-04 20:00:00 26.4 8 Sudeste 38 Nordeste 0 -- -- 24
2019-10-04 19:00:00 27.6 18 Nordeste 49 Norte 0 -- -- 21
2019-10-04 18:00:00 28.4 27 Nordeste 55 Nordeste 0 -- -- 19
2019-10-04 17:00:00 28.9 26 Nordeste 51 Nordeste 0 -- -- 19
2019-10-04 16:00:00 29.8 20 Nordeste 48 Nordeste 0 -- -- 18
2019-10-04 15:00:00 30 22 Nordeste 51 Nordeste 0 -- -- 18
2019-10-04 14:00:00 30.6 15 Norte 48 Nordeste 0 -- -- 18
2019-10-04 13:00:00 30.8 14 Nordeste 53 Nordeste 0 -- -- 16
2019-10-04 12:00:00 29.8 23 Nordeste 59 Nordeste 0 -- -- 17
2019-10-04 11:00:00 28.7 36 Nordeste 63 Nordeste 0 -- -- 17
2019-10-04 10:00:00 27.6 28 Nordeste 65 Nordeste 0 -- -- 18
2019-10-04 09:00:00 26.6 33 Nordeste 66 Nordeste 0 -- -- 19
2019-10-04 08:00:00 25.7 23 Nordeste 59 Nordeste 0 -- -- 19
2019-10-04 07:00:00 26 37 Nordeste 68 Nordeste 0 -- -- 19
2019-10-04 06:00:00 26.2 34 Nordeste 67 Nordeste 0 -- -- 19
2019-10-04 05:00:00 26.2 38 Nordeste 81 Nordeste 0 -- -- 19
2019-10-04 04:00:00 26.1 45 Nordeste 77 Nordeste 0 -- -- 19
2019-10-04 03:00:00 25.8 36 Nordeste 63 Nordeste 0 -- -- 20
2019-10-04 02:00:00 26.3 19 Nordeste 55 Nordeste 0 -- -- 19
2019-10-04 01:00:00 25.9 35 Nordeste 63 Nordeste 0 -- -- 20
2019-10-04 00:00:00 25.6 31 Nordeste 58 Nordeste 0 -- -- 21
2019-10-03 23:00:00 25.9 24 Nordeste 57 Nordeste 0 -- -- 20
2019-10-03 22:00:00 25.6 14 Nordeste 47 Nordeste 0 -- -- 20
2019-10-03 21:00:00 26.3 23 Nordeste 55 Nordeste 0 -- -- 19
2019-10-03 20:00:00 26.9 19 Nordeste 49 Nordeste 0 -- -- 19
2019-10-03 19:00:00 27.8 22 Nordeste 49 Norte 0 -- -- 17
2019-10-03 18:00:00 28.7 25 Nordeste 51 Nordeste 0 -- -- 16
2019-10-03 17:00:00 29.6 24 Norte 58 Norte 0 -- -- 15
2019-10-03 16:00:00 31 19 Norte 59 Este 0 -- -- 14
2019-10-03 15:00:00 32 14 Norte 40 Norte 0 -- -- 15
2019-10-03 14:00:00 32.9 7 Oeste 40 Este 0 -- -- 15
2019-10-03 13:00:00 33.6 7 Norte 39 Este 0 -- -- 15
2019-10-03 12:00:00 32.1 12 Norte 51 Nordeste 0 -- -- 15
2019-10-03 11:00:00 31.5 10 Norte 36 Este 0 -- -- 15
2019-10-03 10:00:00 31.2 10 Nordeste 30 Nordeste 0 -- -- 15
2019-10-03 09:00:00 29.4 12 Nordeste 33 Nordeste 0 -- -- 15
2019-10-03 08:00:00 28.1 17 Nordeste 35 Nordeste 0 -- -- 15
2019-10-03 07:00:00 28.2 13 Nordeste 35 Nordeste 0 -- -- 14
2019-10-03 06:00:00 28.6 17 Nordeste 35 Nordeste 0 -- -- 15
2019-10-03 05:00:00 28.6 21 Nordeste 36 Nordeste 0 -- -- 14
2019-10-03 04:00:00 28 14 Nordeste 38 Nordeste 0 -- -- 14
2019-10-03 03:00:00 28.3 17 Nordeste 33 Nordeste 0 -- -- 15
2019-10-03 02:00:00 28.5 16 Nordeste 34 Nordeste 0 -- -- 15
2019-10-03 01:00:00 28.9 17 Nordeste 35 Nordeste 0 -- -- 15
2019-10-03 00:00:00 29.2 20 Nordeste 38 Nordeste 0 -- -- 15
2019-10-02 23:00:00 28.9 8 Nordeste 28 Nordeste 0 -- -- 16
2019-10-02 22:00:00 27.9 5 Oeste 12 Este 0 -- -- 18
2019-10-02 21:00:00 28.3 2 Este 12 Sudoeste 0 -- -- 19
2019-10-02 20:00:00 28.7 4 Sudoeste 7 Sudoeste 0 -- -- 20
2019-10-02 19:00:00 31.4 3 Sudeste 13 Sur 0 -- -- 19
2019-10-02 18:00:00 33.3 6 Sur 13 Sudeste 0 -- -- 18
2019-10-02 17:00:00 34.3 5 Sudeste 20 Sur 0 -- -- 17
2019-10-02 16:00:00 35.5 6 Sur 23 Este 0 -- -- 15
2019-10-02 15:00:00 36.3 6 Este 27 Sudeste 0 -- -- 14
2019-10-02 14:00:00 35.9 7 Sudeste 21 Sur 0 -- -- 15
2019-10-02 13:00:00 36.3 6 Este 28 Nordeste 0 -- -- 13
2019-10-02 12:00:00 36.2 5 Este 25 Sudeste 0 -- -- 13
2019-10-02 11:00:00 34.5 5 Este 19 Nordeste 0 -- -- 14
2019-10-02 10:00:00 31.3 4 Sudeste 14 Este 0 -- -- 16
2019-10-02 09:00:00 28.3 3 Sudoeste 12 Sudeste 0 -- -- 18
2019-10-02 08:00:00 27.5 7 Sur 11 Sudoeste 0 -- -- 17
2019-10-02 07:00:00 28.1 4 Sudoeste 10 Sudoeste 0 -- -- 16
2019-10-02 06:00:00 27.6 5 Sudoeste 10 Sudoeste 0 -- -- 16
2019-10-02 05:00:00 28 3 Sur 5 Sudoeste 0 -- -- 16
2019-10-02 04:00:00 28.1 3 Oeste 6 Sudoeste 0 -- -- 16
2019-10-02 03:00:00 28.5 3 Noroeste 6 Oeste 0 -- -- 16
2019-10-02 02:00:00 28.2 5 Sudoeste 7 Oeste 0 -- -- 16
2019-10-02 01:00:00 28.9 3 Sudoeste 8 Nordeste 0 -- -- 16
2019-10-02 00:00:00 29.2 2 Sudeste 8 Oeste 0 -- -- 16
2019-10-01 23:00:00 28.8 4 Oeste 8 Sudoeste 0 -- -- 16
2019-10-01 22:00:00 28.8 4 Oeste 8 Oeste 0 -- -- 17
2019-10-01 21:00:00 28.8 6 Oeste 8 Oeste 0 -- -- 19
2019-10-01 20:00:00 30.2 5 Sudoeste 8 Sudoeste 0 -- -- 18
2019-10-01 19:00:00 32.7 4 Sur 10 Sur 0 -- -- 16
2019-10-01 18:00:00 -- 2 Sudeste 14 Sudeste 0 -- -- 17
2019-10-01 17:00:00 -- 5 Sudeste 17 Sur 0 -- -- 15
2019-10-01 16:00:00 -- 5 Sudeste 18 Sudeste 0 -- -- 15
2019-10-01 15:00:00 -- 5 Sudeste 22 Sudeste 0 -- -- 15
2019-10-01 14:00:00 -- 6 Sudeste 20 Este 0 -- -- 16
2019-10-01 13:00:00 -- 5 Este 18 Este 0 -- -- 15
2019-10-01 12:00:00 -- 5 Este 16 Este 0 -- -- 15
2019-10-01 11:00:00 33.8 4 Este 12 Nordeste 0 -- -- 17
2019-10-01 10:00:00 31.5 4 Este 9 Este 0 -- -- 16
2019-10-01 09:00:00 28.6 4 Noroeste 6 Noroeste 0 -- -- 17
2019-10-01 08:00:00 27.8 5 Oeste 10 Oeste 0 -- -- 15
2019-10-01 07:00:00 28.2 3 Oeste 8 Oeste 0 -- -- 15
2019-10-01 06:00:00 28.2 5 Oeste 10 Oeste 0 -- -- 15
2019-10-01 05:00:00 27.7 9 Oeste 13 Oeste 0 -- -- 16
2019-10-01 04:00:00 29.3 5 Sur 13 Oeste 0 -- -- 14
2019-10-01 03:00:00 28.6 5 Oeste 9 Noroeste 0 -- -- 15
2019-10-01 02:00:00 28.3 5 Oeste 9 Oeste 0 -- -- 16
2019-10-01 01:00:00 27.9 6 Oeste 9 Noroeste 0 -- -- 17
2019-10-01 00:00:00 28.9 5 Oeste 8 Sudoeste 0 -- -- 17
2019-09-30 23:00:00 28.4 6 Oeste 9 Noroeste 0 -- -- 19
2019-09-30 22:00:00 29.1 3 Oeste 9 Oeste 0 -- -- 20
2019-09-30 21:00:00 29.2 8 Oeste 9 Oeste 0 -- -- 21
2019-09-30 20:00:00 30.8 4 Noroeste 5 Oeste 0 -- -- 22
2019-09-30 19:00:00 33.6 3 Sudeste 6 Este 0 -- -- 18
2019-09-30 18:00:00 -- 4 Este 10 Sudeste 0 -- -- 20
2019-09-30 17:00:00 -- 6 Este 15 Este 0 -- -- 24
2019-09-30 16:00:00 -- 6 Este 17 Sudeste 0 -- -- 18
2019-09-30 15:00:00 -- 5 Este 18 Nordeste 0 -- -- 15
2019-09-30 14:00:00 -- 6 Este 19 Este 0 -- -- 15
2019-09-30 13:00:00 -- 6 Este 16 Este 0 -- -- 17
2019-09-30 12:00:00 -- 6 Este 15 Este 0 -- -- 15
2019-09-30 11:00:00 -- 6 Este 12 Este 0 -- -- 15
2019-09-30 10:00:00 31.4 2 Norte 11 Oeste 0 -- -- 17
2019-09-30 09:00:00 28.1 3 Sur 13 Sudeste 0 -- -- 19
2019-09-30 08:00:00 27.1 4 Oeste 9 Oeste 0 -- -- 19
2019-09-30 07:00:00 27.6 5 Sudoeste 9 Este 0 -- -- 18
2019-09-30 06:00:00 27.8 4 Sudoeste 14 Sudoeste 0 -- -- 18
2019-09-30 05:00:00 27.1 6 Sudoeste 12 Sudoeste 0 -- -- 18
2019-09-30 04:00:00 27.8 4 Sudoeste 11 Noroeste 0 -- -- 17
2019-09-30 03:00:00 27.3 3 Sur 9 Sudoeste 0 -- -- 18
2019-09-30 02:00:00 27.1 5 Sudoeste 9 Oeste 0 -- -- 18
2019-09-30 01:00:00 27 5 Oeste 12 Noroeste 0 -- -- 18
2019-09-30 00:00:00 27.7 3 Noroeste 9 Oeste 0 -- -- 17
2019-09-29 23:00:00 27.6 5 Noroeste 8 Noroeste 0 -- -- 17
2019-09-29 22:00:00 27.9 5 Oeste 8 Noroeste 0 -- -- 17
2019-09-29 21:00:00 28.1 5 Oeste 6 Oeste 0 -- -- 17
2019-09-29 20:00:00 29.2 3 Oeste 4 Oeste 0 -- -- 17
2019-09-29 19:00:00 30.5 2 Sudoeste 6 Este 0 -- -- 22
2019-09-29 18:00:00 31.7 2 Este 14 Sudeste 0 -- -- 21
2019-09-29 17:00:00 33.8 4 Este 16 Sudeste 0 -- -- 20
2019-09-29 16:00:00 35 6 Este 18 Este 0 -- -- 18
2019-09-29 15:00:00 34.6 5 Este 16 Este 0 -- -- 18
2019-09-29 14:00:00 -- 4 Este 18 Sudeste 0 -- -- 19
2019-09-29 13:00:00 34.4 5 Este 16 Nordeste 0 -- -- 20
2019-09-29 12:00:00 34.4 5 Este 17 Este 0 -- -- 23
2019-09-29 11:00:00 32 3 Este 12 Este 0 -- -- 19
2019-09-29 10:00:00 30.1 4 Este 11 Nordeste 0 -- -- 21
2019-09-29 09:00:00 26.6 3 Este 12 Noroeste 0 -- -- 23
2019-09-29 08:00:00 24.6 4 Oeste 11 Oeste 0 -- -- 25
2019-09-29 07:00:00 24.4 9 Oeste 13 Noroeste 0 -- -- 25
2019-09-29 06:00:00 25.9 4 Sur 9 Oeste 0 -- -- 23
2019-09-29 05:00:00 25 0 Calma 7 Oeste 0 -- -- 25
2019-09-29 04:00:00 25.1 5 Oeste 8 Oeste 0 -- -- 24
2019-09-29 03:00:00 25.8 3 Sudoeste 8 Oeste 0 -- -- 23
2019-09-29 02:00:00 24.8 4 Oeste 7 Noroeste 0 -- -- 24
2019-09-29 01:00:00 25.3 4 Oeste 5 Oeste 0 -- -- 24
2019-09-29 00:00:00 26.1 4 Sudoeste 8 Sudoeste 0 -- -- 23
2019-09-28 23:00:00 26.2 4 Oeste 7 Oeste 0 -- -- 24
2019-09-28 22:00:00 26 6 Oeste 10 Noroeste 0 -- -- 26
2019-09-28 21:00:00 25.8 7 Noroeste 10 Noroeste 0 -- -- 30
2019-09-28 20:00:00 25.8 0 Calma 8 Oeste 0 -- -- 39
2019-09-28 19:00:00 24.3 2 Noroeste 9 Este 0 -- -- 61
2019-09-28 18:00:00 25.8 4 Este 12 Este 0 -- -- 57
2019-09-28 17:00:00 27.2 6 Este 15 Este 0 -- -- 53
2019-09-28 16:00:00 29 5 Este 18 Sudeste 0 -- -- 48
2019-09-28 15:00:00 30.3 6 Este 14 Este 0 -- -- 45
2019-09-28 14:00:00 29.2 4 Este 15 Este 0 -- -- 46
2019-09-28 13:00:00 29.1 6 Este 14 Este 0 -- -- 45
2019-09-28 12:00:00 28.4 5 Este 13 Este 0 -- -- 44
2019-09-28 11:00:00 29.7 5 Este 10 Nordeste 0 -- -- 35
2019-09-28 10:00:00 28.1 3 Nordeste 14 Noroeste 0 -- -- 29
2019-09-28 09:00:00 26.7 6 Oeste 16 Oeste 0 -- -- 27
2019-09-28 08:00:00 26 12 Oeste 21 Oeste 0 -- -- 27
2019-09-28 07:00:00 26.3 11 Oeste 21 Oeste 0 -- -- 24
2019-09-28 06:00:00 26.1 12 Oeste 20 Oeste 0 -- -- 23
2019-09-28 05:00:00 26 12 Oeste 18 Oeste 0 -- -- 23
2019-09-28 04:00:00 26.4 8 Oeste 22 Oeste 0 -- -- 23
2019-09-28 03:00:00 26.6 13 Oeste 23 Oeste 0 -- -- 22
2019-09-28 02:00:00 26.3 8 Oeste 23 Noroeste 0 -- -- 23
2019-09-28 01:00:00 25.5 6 Noroeste 17 Oeste 0 -- -- 23
2019-09-28 00:00:00 25.3 3 Sudeste 19 Noroeste 0 -- -- 30
2019-09-27 23:00:00 25.9 6 Oeste 13 Oeste 0 -- -- 21
2019-09-27 22:00:00 24.8 3 Norte 8 Noroeste 0 -- -- 30
2019-09-27 21:00:00 25.2 2 Noroeste 8 Oeste 0 -- -- 29
2019-09-27 20:00:00 23.3 4 Oeste 9 Este 0 -- -- 57
2019-09-27 19:00:00 24.6 5 Este 10 Este 0 -- -- 58
2019-09-27 18:00:00 26.3 6 Este 13 Este 0 -- -- 55
2019-09-27 17:00:00 27.1 4 Este 14 Este 0 -- -- 53
2019-09-27 16:00:00 28.9 5 Este 16 Este 0 -- -- 50
2019-09-27 15:00:00 29.3 5 Este 18 Sudeste 0 -- -- 47
2019-09-27 14:00:00 30.4 7 Este 17 Este 0 -- -- 44
2019-09-27 13:00:00 29.3 8 Este 19 Este 0 -- -- 43
2019-09-27 12:00:00 29.2 6 Este 14 Este 0 -- -- 38
2019-09-27 11:00:00 29.7 5 Este 10 Este 0 -- -- 30
2019-09-27 10:00:00 27.5 4 Nordeste 10 Este 0 -- -- 23
2019-09-27 09:00:00 25.6 2 Noroeste 10 Noroeste 0 -- -- 23
2019-09-27 08:00:00 23.3 3 Este 9 Noroeste 0 -- -- 23
2019-09-27 07:00:00 22.3 4 Noroeste 13 Noroeste 0 -- -- 29
2019-09-27 06:00:00 22.6 3 Nordeste 8 Noroeste 0 -- -- 27
2019-09-27 05:00:00 22.8 2 Este 7 Nordeste 0 -- -- 25
2019-09-27 04:00:00 23.4 2 Nordeste 9 Oeste 0 -- -- 23
2019-09-27 03:00:00 23.8 3 Sudeste 6 Sudoeste 0 -- -- 23
2019-09-27 02:00:00 23.5 0 Calma 5 Sur 0 -- -- 23
2019-09-27 01:00:00 23.9 3 Oeste 8 Sudoeste 0 -- -- 24
2019-09-27 00:00:00 22.9 3 Sudoeste 5 Sudoeste 0 -- -- 34
2019-09-26 23:00:00 22.3 0 Calma 7 Oeste 0 -- -- 47
2019-09-26 22:00:00 22.1 3 Este 9 Noroeste 0 -- -- 57
2019-09-26 21:00:00 22.3 3 Este 7 Este 0 -- -- 65
2019-09-26 20:00:00 22.2 0 Calma 5 Este 0 -- -- 67
2019-09-26 19:00:00 24 4 Este 8 Este 0 -- -- 61
2019-09-26 18:00:00 26.5 4 Este 17 Sudeste 0 -- -- 54
2019-09-26 17:00:00 28 5 Este 15 Este 0 -- -- 48
2019-09-26 16:00:00 28.9 5 Este 17 Este 0 -- -- 46
2019-09-26 15:00:00 29.4 5 Este 17 Este 0 -- -- 45
2019-09-26 14:00:00 29.5 6 Este 17 Este 0 -- -- 44
2019-09-26 13:00:00 29.2 7 Este 16 Este 0 -- -- 41
2019-09-26 12:00:00 27.5 6 Este 15 Nordeste 0 -- -- 41
2019-09-26 11:00:00 25.2 5 Nordeste 12 Este 0 -- -- 50
2019-09-26 10:00:00 25 4 Este 11 Noroeste 0 -- -- 44
2019-09-26 09:00:00 21.5 3 Nordeste 8 Noroeste 0 -- -- 42
2019-09-26 08:00:00 21 4 Oeste 8 Noroeste 0 -- -- 40
2019-09-26 07:00:00 20.1 7 Noroeste 10 Noroeste 0 -- -- 41
2019-09-26 06:00:00 21 3 Sudoeste 8 Noroeste 0 -- -- 43
2019-09-26 05:00:00 21.5 3 Sudeste 11 Noroeste 0 -- -- 45
2019-09-26 04:00:00 20.4 3 Sudoeste 5 Oeste 0 -- -- 45
2019-09-26 03:00:00 20.2 3 Oeste 6 Noroeste 0 -- -- 51
2019-09-26 02:00:00 20.1 3 Oeste 8 Noroeste 0 -- -- 60
2019-09-26 01:00:00 20.2 5 Noroeste 9 Noroeste 0 -- -- 56
2019-09-26 00:00:00 21.2 0 Calma 6 Sudoeste 0 -- -- 58
2019-09-25 23:00:00 21.2 4 Sudoeste 8 Noroeste 0 -- -- 54
2019-09-25 22:00:00 20.8 0 Calma 4 Oeste 0 -- -- 66
2019-09-25 21:00:00 21.3 0 Calma 4 Este 0 -- -- 66
2019-09-25 20:00:00 22.3 0 Calma 4 Este 0 -- -- 61
2019-09-25 19:00:00 23.5 0 Calma 8 Sudeste 0 -- -- 58
2019-09-25 18:00:00 25.9 4 Este 14 Este 0 -- -- 51
2019-09-25 17:00:00 27.9 5 Este 18 Sudeste 0 -- -- 47
2019-09-25 16:00:00 28.3 6 Este 18 Este 0 -- -- 45
2019-09-25 15:00:00 29 6 Sudeste 17 Este 0 -- -- 42
2019-09-25 14:00:00 29.9 5 Este 18 Este 0 -- -- 37
2019-09-25 13:00:00 29.1 7 Este 17 Este 0 -- -- 36
2019-09-25 12:00:00 27.3 5 Este 15 Este 0 -- -- 37
2019-09-25 11:00:00 26.8 5 Este 13 Este 0 -- -- 37
2019-09-25 10:00:00 24.9 3 Nordeste 9 Nordeste 0 -- -- 35
2019-09-25 09:00:00 21.1 0 Calma 3 Este 0 -- -- 41
2019-09-25 08:00:00 18.9 2 Oeste 4 Sudoeste 0 -- -- 39
2019-09-25 07:00:00 18.5 3 Noroeste 11 Noroeste 0 -- -- 39
2019-09-25 06:00:00 18.7 3 Noroeste 6 Noroeste 0 -- -- 39
2019-09-25 05:00:00 19.4 0 Calma 7 Noroeste 0 -- -- 38
2019-09-25 04:00:00 19.1 2 Oeste 7 Noroeste 0 -- -- 41
2019-09-25 03:00:00 19 5 Noroeste 8 Noroeste 0 -- -- 39
2019-09-25 02:00:00 18.9 7 Noroeste 12 Noroeste 0 -- -- 44
2019-09-25 01:00:00 19.6 5 Noroeste 9 Noroeste 0 -- -- 47
2019-09-25 00:00:00 20.1 2 Sudoeste 5 Sudoeste 0 -- -- 60
2019-09-24 23:00:00 19.9 2 Sur 8 Sudoeste 0 -- -- 64
2019-09-24 22:00:00 20.4 2 Sudoeste 4 Oeste 0 -- -- 68
2019-09-24 21:00:00 21.1 2 Sudoeste 5 Sudoeste 0 -- -- 65
2019-09-24 20:00:00 21.5 3 Oeste 6 Noroeste 0 -- -- 68
2019-09-24 19:00:00 23 4 Sudeste 11 Este 0 -- -- 64
2019-09-24 18:00:00 26.3 3 Este 11 Este 0 -- -- 53
2019-09-24 17:00:00 26.3 6 Sudeste 16 Sudeste 0 -- -- 52
2019-09-24 16:00:00 27.5 5 Sudeste 16 Sudeste 0 -- -- 51
2019-09-24 15:00:00 28.1 4 Este 17 Este 0 -- -- 49
2019-09-24 14:00:00 27.5 7 Este 22 Este 0 -- -- 51
2019-09-24 13:00:00 27.3 5 Este 21 Este 0 -- -- 51
2019-09-24 12:00:00 26.7 6 Este 19 Este 0 -- -- 49
2019-09-24 11:00:00 24.9 4 Este 12 Este 0 -- -- 55
2019-09-24 10:00:00 23.6 4 Este 9 Este 0 -- -- 52
2019-09-24 09:00:00 19.2 2 Nordeste 7 Noroeste 0 -- -- 68
2019-09-24 08:00:00 18 2 Este 14 Noroeste 0 -- -- 64
2019-09-24 07:00:00 18.4 6 Sudeste 10 Sudeste 0 -- -- 69
2019-09-24 06:00:00 18.4 0 Calma 6 Sudoeste 0 -- -- 66
2019-09-24 05:00:00 18.5 8 Noroeste 11 Noroeste 0 -- -- 63
2019-09-24 04:00:00 18.3 5 Noroeste 6 Noroeste 0 -- -- 69
2019-09-24 03:00:00 19.3 3 Este 5 Sudoeste 0 -- -- 69
2019-09-24 02:00:00 19.3 5 Sudoeste 6 Oeste 0 -- -- 65
2019-09-24 01:00:00 18.8 3 Noroeste 7 Noroeste 0 -- -- 75
2019-09-24 00:00:00 19.5 2 Sudeste 6 Noroeste 0 -- -- 75
2019-09-23 23:00:00 19.8 3 Sudoeste 8 Sudoeste 0 -- -- 73
2019-09-23 22:00:00 20 2 Sur 10 Oeste 0 -- -- 73
2019-09-23 21:00:00 18.3 2 Norte 6 Este 0 -- -- 82
2019-09-23 20:00:00 20.1 4 Este 6 Este 0 -- -- 75
2019-09-23 19:00:00 21.8 3 Este 10 Sudeste 0 -- -- 71
2019-09-23 18:00:00 23.6 4 Sudeste 13 Sudeste 0 -- -- 65
2019-09-23 17:00:00 25 4 Sudeste 14 Sudeste 0 -- -- 61
2019-09-23 16:00:00 25.5 6 Sudeste 16 Sudeste 0 -- -- 61
2019-09-23 15:00:00 26.1 7 Sudeste 21 Sur 0 -- -- 59
2019-09-23 14:00:00 26.5 5 Sudeste 18 Este 0 -- -- 58
2019-09-23 13:00:00 26.1 5 Este 19 Este 0 -- -- 60
2019-09-23 12:00:00 25.2 5 Este 15 Este 0 -- -- 62
2019-09-23 11:00:00 25 6 Este 14 Este 0 -- -- 63
2019-09-23 10:00:00 23.5 4 Este 11 Este 0 -- -- 63
2019-09-23 09:00:00 19.8 2 Norte 7 Noroeste 0 -- -- 74
2019-09-23 08:00:00 18.2 3 Sudeste 6 Sudeste 0 -- -- 83
2019-09-23 07:00:00 17.3 3 Oeste 5 Oeste 0 -- -- 85
2019-09-23 06:00:00 17.8 3 Sur 5 Oeste 0 -- -- 86
2019-09-23 05:00:00 18.1 0 Calma 4 Este 0 -- -- 84
2019-09-23 04:00:00 18.2 3 Oeste 6 Oeste 0 -- -- 83
2019-09-23 03:00:00 18.3 3 Noroeste 8 Noroeste 0 -- -- 81
2019-09-23 02:00:00 17.8 4 Oeste 7 Noroeste 0 -- -- 87
2019-09-23 01:00:00 18.4 0 Calma 5 Oeste 0 -- -- 85
2019-09-23 00:00:00 18.4 3 Este 10 Oeste 0 -- -- 88
2019-09-22 23:00:00 18.2 4 Sudeste 6 Noroeste 0 -- -- 89
2019-09-22 22:00:00 18.5 4 Oeste 6 Oeste 0 -- -- 89
2019-09-22 21:00:00 19.3 2 Nordeste 5 Este 0 -- -- 87
2019-09-22 20:00:00 20.4 3 Este 6 Este 0 -- -- 82
2019-09-22 19:00:00 21.4 4 Este 12 Este 0 -- -- 78
2019-09-22 18:00:00 23 3 Este 12 Nordeste 0 -- -- 71
2019-09-22 17:00:00 23.7 3 Este 12 Sudeste 0 -- -- 68
2019-09-22 16:00:00 24.5 4 Este 19 Sudeste 0 -- -- 66
2019-09-22 15:00:00 26.6 6 Este 21 Este 0 -- -- 59
2019-09-22 14:00:00 27.2 5 Este 20 Sudeste 0 -- -- 56
2019-09-22 13:00:00 27 7 Este 19 Este 0 -- -- 54
2019-09-22 12:00:00 25 6 Este 17 Sudeste 0 -- -- 56
2019-09-22 11:00:00 24.6 5 Este 15 Este 0 -- -- 53
2019-09-22 10:00:00 22 5 Nordeste 10 Nordeste 0 -- -- 60
2019-09-22 09:00:00 18.7 0 Calma 6 Nordeste 0 -- -- 68
2019-09-22 08:00:00 15.8 6 Oeste 12 Noroeste 0 -- -- 74
2019-09-22 07:00:00 15.7 3 Sudoeste 8 Noroeste 0 -- -- 80
2019-09-22 06:00:00 15.6 4 Noroeste 6 Noroeste 0 -- -- 77
2019-09-22 05:00:00 16 2 Norte 5 Sudeste 0 -- -- 89
2019-09-22 04:00:00 16.5 0 Calma 9 Noroeste 0 -- -- 70
2019-09-22 03:00:00 15.8 3 Noroeste 8 Noroeste 0 -- -- 79
2019-09-22 02:00:00 16.2 2 Este 8 Noroeste 0 -- -- 92
2019-09-22 01:00:00 16.6 0 Calma 6 Este 0 -- -- 90
2019-09-22 00:00:00 16.8 0 Calma 5 Nordeste 0 -- -- 92
2019-09-21 23:00:00 17 0 Calma 8 Noroeste 0 -- -- 90
2019-09-21 22:00:00 17.5 2 Este 6 Este 0 -- -- 91
2019-09-21 21:00:00 18.6 3 Este 7 Este 0 -- -- 85
2019-09-21 20:00:00 19 2 Nordeste 5 Sudoeste 0 -- -- 83
2019-09-21 19:00:00 20.9 3 Sudeste 10 Este 0 -- -- 74
2019-09-21 18:00:00 22.7 4 Este 13 Este 0 -- -- 68
2019-09-21 17:00:00 24.6 6 Este 16 Este 0 -- -- 61
2019-09-21 16:00:00 25.6 5 Este 21 Este 0 -- -- 58
2019-09-21 15:00:00 26.1 6 Este 22 Este 0 -- -- 56
2019-09-21 14:00:00 26.5 7 Este 18 Este 0 -- -- 54
2019-09-21 13:00:00 26.7 6 Este 17 Este 0 -- -- 51
2019-09-21 12:00:00 25.4 6 Este 14 Este 0 -- -- 49
2019-09-21 11:00:00 24.1 6 Este 14 Este 0 -- -- 50
2019-09-21 10:00:00 22.5 5 Este 10 Este 0 -- -- 49
2019-09-21 09:00:00 19.7 2 Nordeste 6 Este 0 -- -- 54
2019-09-21 08:00:00 16.8 3 Oeste 5 Oeste 0 -- -- 60
2019-09-21 07:00:00 16.7 3 Oeste 5 Noroeste 0 -- -- 62
2019-09-21 06:00:00 16.7 3 Noroeste 10 Noroeste 0 -- -- 64
2019-09-21 05:00:00 16.8 6 Noroeste 9 Noroeste 0 -- -- 72
2019-09-21 04:00:00 17.2 6 Noroeste 9 Noroeste 0 -- -- 74
2019-09-21 03:00:00 17 4 Oeste 9 Oeste 0 -- -- 78
2019-09-21 02:00:00 17.8 3 Sudeste 8 Noroeste 0 -- -- 80
2019-09-21 01:00:00 17.5 5 Oeste 9 Noroeste 0 -- -- 82
2019-09-21 00:00:00 17 3 Noroeste 5 Este 0 -- -- 83
2019-09-20 23:00:00 18 0 Calma 10 Sudeste 0 -- -- 79
2019-09-20 22:00:00 18.7 3 Este 8 Oeste 0 -- -- 78
2019-09-20 21:00:00 19.4 2 Nordeste 6 Sur 0 -- -- 76
2019-09-20 20:00:00 20.5 3 Este 8 Sudeste 0 -- -- 72
2019-09-20 19:00:00 22.8 3 Sudeste 9 Sudeste 0 -- -- 63
2019-09-20 18:00:00 25.8 4 Este 17 Este 0 -- -- 53
2019-09-20 17:00:00 27.2 5 Sudeste 16 Sudeste 0 -- -- 51
2019-09-20 16:00:00 26.6 5 Este 18 Sudeste 0 -- -- 52
2019-09-20 15:00:00 26.4 6 Este 19 Este 0 -- -- 53
2019-09-20 14:00:00 26.4 6 Sudeste 18 Este 0 -- -- 53
2019-09-20 13:00:00 25.6 6 Sudeste 17 Este 0 -- -- 53
2019-09-20 12:00:00 25 6 Este 17 Este 0 -- -- 51
2019-09-20 11:00:00 22.9 4 Nordeste 14 Este 0 -- -- 58
2019-09-20 10:00:00 22.5 6 Este 12 Este 0 -- -- 58
2019-09-20 09:00:00 21.5 3 Este 9 Este 0 -- -- 47
2019-09-20 08:00:00 18.8 5 Noroeste 8 Noroeste 0 -- -- 48
2019-09-20 07:00:00 18.7 6 Noroeste 8 Noroeste 0 -- -- 50
2019-09-20 06:00:00 18.7 2 Sudoeste 7 Sur 0 -- -- 55
2019-09-20 05:00:00 18.7 7 Oeste 8 Oeste 0 -- -- 65
2019-09-20 04:00:00 19.1 3 Sur 9 Noroeste 0 -- -- 65
2019-09-20 03:00:00 19.1 4 Oeste 6 Oeste 0 -- -- 68
2019-09-20 02:00:00 19.3 5 Noroeste 9 Noroeste 0 -- -- 68
2019-09-20 01:00:00 20 4 Este 11 Oeste 0 -- -- 67
2019-09-20 00:00:00 19.9 0 Calma 10 Noroeste 0 -- -- 73